Time;durP1;ratioP1;P1;durP2;ratioP2;P2;SDS_P1;SDS_P2;PMS_P1;PMS_P2;Temp;Humidity;BMP_temperature;BMP_pressure;BME280_temperature;BME280_humidity;BME280_pressure;Samples;Min_cycle;Max_cycle;Signal;HPM_P1;HPM_P2
2022/02/09 00:02:02;;;;;;;821.33;489.70;;;;;;;;;;4958925;28;20026;-79
2022/02/09 00:04:36;;;;;;;818.78;484.75;;;;;;;;;;4981535;28;20474;-80
2022/02/09 00:07:07;;;;;;;819.45;483.45;;;;;;;;;;4946322;28;20044;-80
2022/02/09 00:09:33;;;;;;;817.17;481.85;;;;;;;;;;4954479;28;20109;-81
2022/02/09 00:17:18;;;;;;;815.88;478.08;;;;;;;;;;4993966;28;20284;-80
2022/02/09 01:40:30;;;;;;;814.72;475.73;;;;;;;;;;4969379;28;20189;-79
2022/02/09 01:56:10;;;;;;;814.38;469.15;;;;;;;;;;4955879;28;20035;-80
2022/02/09 01:58:36;;;;;;;815.47;477.02;;;;;;;;;;4957186;28;20145;-80
2022/02/09 02:01:02;;;;;;;820.53;479.33;;;;;;;;;;4964417;28;20597;-80
2022/02/09 02:03:28;;;;;;;818.72;483.42;;;;;;;;;;4968348;28;20394;-81
2022/02/09 02:05:55;;;;;;;819.83;485.42;;;;;;;;;;5006873;28;20051;-81
2022/02/09 02:08:23;;;;;;;820.55;487.55;;;;;;;;;;4982200;28;20092;-81
2022/02/09 02:11:03;;;;;;;813.60;476.25;;;;;;;;;;4984389;28;20027;-79
2022/02/09 02:13:49;;;;;;;816.25;473.80;;;;;;;;;;4999492;28;20035;-81
2022/02/09 02:18:50;;;;;;;822.72;490.50;;;;;;;;;;4983154;28;20025;-81
2022/02/09 02:26:22;;;;;;;819.03;483.55;;;;;;;;;;4980422;28;20034;-80
2022/02/09 02:29:13;;;;;;;817.65;476.98;;;;;;;;;;5011291;28;20025;-80
2022/02/09 03:12:20;;;;;;;819.53;481.15;;;;;;;;;;4980320;28;20519;-80
2022/02/09 03:14:56;;;;;;;816.83;477.17;;;;;;;;;;4995876;28;20042;-80
2022/02/09 03:17:31;;;;;;;815.08;471.58;;;;;;;;;;4991710;28;20575;-80
2022/02/09 03:20:07;;;;;;;815.95;469.88;;;;;;;;;;4956554;28;20024;-81
2022/02/09 03:52:05;;;;;;;815.53;471.67;;;;;;;;;;4970406;28;20071;-79
2022/02/09 03:59:23;;;;;;;814.15;472.17;;;;;;;;;;5003685;28;20070;-81
2022/02/09 04:01:49;;;;;;;812.28;469.65;;;;;;;;;;4952738;28;20474;-81
2022/02/09 04:04:15;;;;;;;812.05;469.13;;;;;;;;;;4950318;28;20040;-80
2022/02/09 04:06:42;;;;;;;815.13;477.63;;;;;;;;;;4970733;28;20385;-81
2022/02/09 04:09:13;;;;;;;814.90;481.15;;;;;;;;;;4942916;28;20030;-80
2022/02/09 04:11:45;;;;;;;818.45;484.08;;;;;;;;;;4937662;28;20449;-80
2022/02/09 04:14:24;;;;;;;814.53;476.10;;;;;;;;;;4976831;28;20044;-81
2022/02/09 04:20:10;;;;;;;817.35;476.13;;;;;;;;;;4983485;28;20039;-80
2022/02/09 04:36:23;;;;;;;810.13;464.83;;;;;;;;;;4963259;28;20518;-79
2022/02/09 04:41:25;;;;;;;813.25;469.90;;;;;;;;;;4979897;28;20036;-80
2022/02/09 04:44:04;;;;;;;815.33;477.88;;;;;;;;;;4966787;28;20058;-80
2022/02/09 04:54:55;;;;;;;814.05;470.95;;;;;;;;;;4958856;28;20507;-80
2022/02/09 04:57:33;;;;;;;814.25;473.73;;;;;;;;;;4957742;28;20035;-80
2022/02/09 05:24:21;;;;;;;810.67;460.63;;;;;;;;;;4981168;28;20438;-79
2022/02/09 05:27:03;;;;;;;813.47;474.30;;;;;;;;;;5020533;28;20045;-80
2022/02/09 05:29:30;;;;;;;814.28;472.80;;;;;;;;;;4952388;28;20028;-80
2022/02/09 05:31:56;;;;;;;812.58;473.67;;;;;;;;;;4981914;28;20028;-79
2022/02/09 05:34:22;;;;;;;813.13;477.30;;;;;;;;;;4984867;28;20039;-79
2022/02/09 05:36:49;;;;;;;812.45;476.10;;;;;;;;;;4987884;28;20042;-79
2022/02/09 05:39:15;;;;;;;814.25;474.63;;;;;;;;;;4988276;28;20036;-81
2022/02/09 05:41:44;;;;;;;812.35;472.60;;;;;;;;;;4965428;28;20035;-79
2022/02/09 05:44:12;;;;;;;812.07;471.50;;;;;;;;;;4996624;28;20059;-81
2022/02/09 05:52:16;;;;;;;808.40;467.95;;;;;;;;;;4989157;28;20036;-79
2022/02/09 05:55:14;;;;;;;810.17;468.02;;;;;;;;;;4984583;28;20125;-79
2022/02/09 05:57:44;;;;;;;808.90;463.17;;;;;;;;;;4996709;28;20032;-80
2022/02/09 06:00:10;;;;;;;811.15;468.52;;;;;;;;;;4956141;28;20043;-81
2022/02/09 06:02:36;;;;;;;806.60;462.02;;;;;;;;;;4956317;28;20039;-81
2022/02/09 06:05:02;;;;;;;809.88;464.05;;;;;;;;;;4984708;28;20092;-80
2022/02/09 06:07:28;;;;;;;810.35;471.05;;;;;;;;;;4998826;28;20036;-80
2022/02/09 06:09:54;;;;;;;809.25;459.83;;;;;;;;;;5009956;28;20032;-80
2022/02/09 06:12:31;;;;;;;807.75;460.05;;;;;;;;;;4966146;28;20028;-80
2022/02/09 06:20:28;;;;;;;811.25;466.35;;;;;;;;;;4954418;28;20309;-79
2022/02/09 06:22:54;;;;;;;806.67;460.35;;;;;;;;;;5001275;28;20457;-81
2022/02/09 06:25:20;;;;;;;800.70;452.25;;;;;;;;;;4988464;28;20038;-81
2022/02/09 06:27:46;;;;;;;807.67;467.30;;;;;;;;;;4975366;28;20024;-80
2022/02/09 06:30:12;;;;;;;806.45;463.38;;;;;;;;;;4983224;28;20028;-80
2022/02/09 06:32:38;;;;;;;807.75;464.27;;;;;;;;;;4988663;28;20036;-81
2022/02/09 06:35:04;;;;;;;807.95;460.85;;;;;;;;;;4992245;28;20033;-80
2022/02/09 06:40:03;;;;;;;805.17;453.95;;;;;;;;;;4994861;28;20066;-80
2022/02/09 06:42:30;;;;;;;805.67;454.23;;;;;;;;;;4981371;28;20036;-79
2022/02/09 06:45:00;;;;;;;802.75;453.63;;;;;;;;;;4990839;28;20031;-81
2022/02/09 06:47:28;;;;;;;804.30;456.55;;;;;;;;;;4975006;28;20055;-80
2022/02/09 06:50:01;;;;;;;805.80;451.85;;;;;;;;;;5002475;28;20078;-79
2022/02/09 06:52:27;;;;;;;803.15;458.50;;;;;;;;;;4974256;28;20021;-80
2022/02/09 06:55:16;;;;;;;806.22;464.33;;;;;;;;;;4982428;28;20051;-81
2022/02/09 07:00:16;;;;;;;799.67;443.33;;;;;;;;;;4954517;28;20039;-80
2022/02/09 07:02:44;;;;;;;805.33;459.90;;;;;;;;;;4979719;28;20029;-81
2022/02/09 07:05:10;;;;;;;800.60;449.98;;;;;;;;;;4981126;28;20530;-80
2022/02/09 07:07:36;;;;;;;803.67;452.52;;;;;;;;;;4998030;28;20021;-81
2022/02/09 07:10:03;;;;;;;804.42;453.98;;;;;;;;;;4973364;28;20026;-80
2022/02/09 07:12:29;;;;;;;802.83;451.60;;;;;;;;;;4973338;28;20019;-81
2022/02/09 07:14:55;;;;;;;803.63;454.20;;;;;;;;;;4962742;28;20046;-81
2022/02/09 07:17:21;;;;;;;802.85;449.10;;;;;;;;;;4962678;28;20392;-79
2022/02/09 07:19:54;;;;;;;803.00;454.70;;;;;;;;;;4971218;28;20370;-79
2022/02/09 07:22:25;;;;;;;804.97;455.50;;;;;;;;;;4966028;28;20042;-81
2022/02/09 07:25:01;;;;;;;800.05;440.45;;;;;;;;;;5015226;28;20030;-79
2022/02/09 07:27:39;;;;;;;800.97;439.00;;;;;;;;;;5000713;28;20021;-79
2022/02/09 07:30:06;;;;;;;796.33;434.55;;;;;;;;;;4961099;28;20031;-80
2022/02/09 07:32:32;;;;;;;800.80;444.20;;;;;;;;;;4947899;28;20120;-81
2022/02/09 07:34:58;;;;;;;802.28;445.98;;;;;;;;;;4985832;28;20552;-79
2022/02/09 07:37:24;;;;;;;800.22;443.40;;;;;;;;;;4989009;28;20085;-80
2022/02/09 07:39:50;;;;;;;800.92;442.42;;;;;;;;;;4963213;28;20031;-81
2022/02/09 07:42:24;;;;;;;800.90;444.77;;;;;;;;;;4989322;28;20384;-79
2022/02/09 07:45:04;;;;;;;801.63;447.33;;;;;;;;;;4975100;28;20463;-80
2022/02/09 07:50:30;;;;;;;795.60;436.17;;;;;;;;;;4954062;28;20545;-79
2022/02/09 07:53:22;;;;;;;800.72;439.50;;;;;;;;;;4947320;28;20517;-80
2022/02/09 07:55:48;;;;;;;799.75;441.30;;;;;;;;;;4985053;28;20029;-80
2022/02/09 07:58:15;;;;;;;800.40;445.95;;;;;;;;;;4967419;28;20534;-81
2022/02/09 08:00:41;;;;;;;803.03;449.15;;;;;;;;;;4965675;28;20029;-80
2022/02/09 08:03:09;;;;;;;806.58;450.20;;;;;;;;;;4974768;28;20051;-81
2022/02/09 08:05:35;;;;;;;806.45;459.15;;;;;;;;;;4991266;28;20051;-79
2022/02/09 08:08:01;;;;;;;800.33;444.17;;;;;;;;;;5016993;28;20395;-80
2022/02/09 08:10:46;;;;;;;798.78;444.75;;;;;;;;;;4968850;28;20027;-80
2022/02/09 08:24:12;;;;;;;797.95;435.77;;;;;;;;;;4973330;28;20091;-78
2022/02/09 08:32:25;;;;;;;801.75;442.52;;;;;;;;;;4995796;28;20048;-79
2022/02/09 08:34:32;;;;;;;803.35;447.55;;;;;;;;;;4985965;28;20494;-80
2022/02/09 08:36:59;;;;;;;802.17;444.63;;;;;;;;;;4967968;28;20024;-79
2022/02/09 08:39:25;;;;;;;802.22;445.63;;;;;;;;;;5003249;28;20036;-80
2022/02/09 08:41:52;;;;;;;803.78;452.77;;;;;;;;;;4980815;28;20114;-80
2022/02/09 08:44:18;;;;;;;802.90;455.55;;;;;;;;;;4968320;28;20087;-81
2022/02/09 08:46:44;;;;;;;801.10;447.15;;;;;;;;;;4962135;28;20396;-80
2022/02/09 08:49:11;;;;;;;804.13;455.45;;;;;;;;;;4953148;28;20069;-79
2022/02/09 08:51:37;;;;;;;802.60;453.77;;;;;;;;;;4980651;28;20035;-81
2022/02/09 08:54:03;;;;;;;802.78;450.75;;;;;;;;;;4973163;28;20146;-79
2022/02/09 08:56:30;;;;;;;805.40;451.67;;;;;;;;;;4974020;28;20036;-81
2022/02/09 08:58:57;;;;;;;808.35;461.55;;;;;;;;;;4965584;28;20036;-81
2022/02/09 09:01:42;;;;;;;808.95;467.58;;;;;;;;;;4969826;28;20037;-81
2022/02/09 09:04:55;;;;;;;806.80;456.90;;;;;;;;;;4952152;28;20387;-81
2022/02/09 09:07:04;;;;;;;802.88;452.85;;;;;;;;;;4943337;28;20407;-81
2022/02/09 09:15:44;;;;;;;806.00;460.63;;;;;;;;;;4958168;28;20029;-82
2022/02/09 10:02:09;;;;;;;816.88;488.70;;;;;;;;;;4948049;28;20042;-80
2022/02/09 10:35:14;;;;;;;819.28;503.52;;;;;;;;;;4960340;28;20042;-80
2022/02/09 10:37:40;;;;;;;821.90;508.20;;;;;;;;;;4994153;28;20431;-79
2022/02/09 10:40:13;;;;;;;819.00;508.85;;;;;;;;;;4996432;28;20033;-81
2022/02/09 10:42:47;;;;;;;816.30;499.08;;;;;;;;;;4957365;28;20056;-81
2022/02/09 10:45:47;;;;;;;817.70;508.92;;;;;;;;;;4969751;28;20568;-81
2022/02/09 10:48:33;;;;;;;817.30;494.70;;;;;;;;;;4958826;28;20016;-80
2022/02/09 10:51:15;;;;;;;814.95;485.85;;;;;;;;;;5003107;28;20025;-81
2022/02/09 10:53:59;;;;;;;814.05;488.20;;;;;;;;;;4972468;28;20096;-80
2022/02/09 10:56:26;;;;;;;818.17;499.80;;;;;;;;;;4967870;28;20025;-80
2022/02/09 10:58:52;;;;;;;818.80;500.92;;;;;;;;;;4957656;28;20093;-80
2022/02/09 11:01:18;;;;;;;823.40;514.78;;;;;;;;;;4946232;28;20027;-81
2022/02/09 11:03:50;;;;;;;821.50;512.83;;;;;;;;;;4957933;28;20027;-82
2022/02/09 11:06:17;;;;;;;824.72;520.97;;;;;;;;;;4963807;28;20112;-82
2022/02/09 11:08:43;;;;;;;823.47;523.35;;;;;;;;;;4962681;28;20031;-81
2022/02/09 11:11:09;;;;;;;824.17;519.70;;;;;;;;;;4958575;28;20312;-81
2022/02/09 11:13:35;;;;;;;823.03;517.97;;;;;;;;;;4953565;28;20031;-81
2022/02/09 11:16:01;;;;;;;826.97;520.42;;;;;;;;;;4970466;28;20090;-80
2022/02/09 11:18:28;;;;;;;827.33;527.60;;;;;;;;;;4944134;28;20108;-81
2022/02/09 11:21:15;;;;;;;820.38;511.88;;;;;;;;;;4960915;28;20555;-81
2022/02/09 11:23:54;;;;;;;817.42;499.60;;;;;;;;;;4944927;28;20028;-79
2022/02/09 11:26:51;;;;;;;816.95;500.92;;;;;;;;;;4965719;28;20478;-81
2022/02/09 11:31:57;;;;;;;;;;;;;;;;;;4965731;28;20054;-82
2022/02/09 11:34:23;;;;;;;822.75;512.13;;;;;;;;;;4971811;28;20661;-80
2022/02/09 11:36:57;;;;;;;829.10;539.58;;;;;;;;;;4998840;28;20039;-80
2022/02/09 11:39:49;;;;;;;828.95;537.38;;;;;;;;;;4960862;28;20523;-82
2022/02/09 11:42:39;;;;;;;827.33;528.95;;;;;;;;;;5009747;28;20113;-80
2022/02/09 11:45:30;;;;;;;828.88;540.17;;;;;;;;;;4956345;28;20048;-81
2022/02/09 11:48:17;;;;;;;832.67;543.92;;;;;;;;;;4980071;28;20039;-81
2022/02/09 12:01:39;;;;;;;838.85;569.25;;;;;;;;;;4974940;28;20062;-82
2022/02/09 12:09:41;;;;;;;831.42;547.15;;;;;;;;;;4975045;28;20074;-81
2022/02/09 12:12:12;;;;;;;833.00;549.20;;;;;;;;;;4972125;28;20024;-79
2022/02/09 12:17:33;;;;;;;837.15;562.13;;;;;;;;;;4950735;28;20043;-81
2022/02/09 12:20:40;;;;;;;835.08;559.58;;;;;;;;;;4990266;28;20093;-82
2022/02/09 12:23:25;;;;;;;831.97;542.17;;;;;;;;;;4929533;28;20476;-81
2022/02/09 12:25:52;;;;;;;827.92;526.85;;;;;;;;;;4956777;28;20046;-81
2022/02/09 12:28:22;;;;;;;835.08;550.42;;;;;;;;;;4985281;28;20023;-82
2022/02/09 12:30:48;;;;;;;832.13;540.47;;;;;;;;;;4952210;28;20026;-81
2022/02/09 12:33:21;;;;;;;836.10;548.45;;;;;;;;;;4952064;28;20066;-79
2022/02/09 12:35:47;;;;;;;835.15;550.65;;;;;;;;;;4969233;28;20536;-82
2022/02/09 12:38:13;;;;;;;844.20;542.60;;;;;;;;;;4958797;28;20027;-79
2022/02/09 12:40:39;;;;;;;832.75;546.45;;;;;;;;;;4933841;28;20040;-83
2022/02/09 12:43:08;;;;;;;835.10;553.33;;;;;;;;;;4947957;28;20035;-82
2022/02/09 12:45:36;;;;;;;838.05;560.60;;;;;;;;;;4961211;28;20042;-83
2022/02/09 12:48:04;;;;;;;831.20;542.63;;;;;;;;;;4945622;28;20550;-82
2022/02/09 12:50:38;;;;;;;833.47;547.25;;;;;;;;;;4943843;28;20027;-82
2022/02/09 12:53:04;;;;;;;835.25;547.33;;;;;;;;;;5002593;28;20033;-81
2022/02/09 12:55:32;;;;;;;840.22;563.58;;;;;;;;;;4972582;28;20081;-81
2022/02/09 12:58:01;;;;;;;836.22;549.95;;;;;;;;;;4974657;28;20025;-81
2022/02/09 13:00:47;;;;;;;832.15;539.92;;;;;;;;;;4966333;28;20082;-82
2022/02/09 13:03:16;;;;;;;831.38;531.33;;;;;;;;;;4955744;28;20893;-82
2022/02/09 13:05:47;;;;;;;833.05;532.35;;;;;;;;;;4964115;28;20072;-83
2022/02/09 13:08:17;;;;;;;833.90;534.70;;;;;;;;;;4947373;28;20027;-78
2022/02/09 13:10:43;;;;;;;834.38;537.63;;;;;;;;;;4953565;28;20042;-83
2022/02/09 13:13:18;;;;;;;834.58;536.42;;;;;;;;;;4973064;28;20143;-83
2022/02/09 13:15:58;;;;;;;830.17;525.22;;;;;;;;;;4978427;28;20024;-81
2022/02/09 14:04:49;;;;;;;827.90;509.63;;;;;;;;;;4959636;28;20445;-83
2022/02/09 14:07:48;;;;;;;824.35;506.73;;;;;;;;;;4966391;28;20058;-81
2022/02/09 14:52:58;;;;;;;817.50;493.13;;;;;;;;;;4961710;28;20049;-82
2022/02/09 14:58:07;;;;;;;818.50;497.48;;;;;;;;;;4964024;28;20924;-82
2022/02/09 15:00:37;;;;;;;810.50;478.65;;;;;;;;;;4960629;28;20021;-82
2022/02/09 15:03:23;;;;;;;;;;;;;;;;;;4961743;28;20137;-82
2022/02/09 15:08:32;;;;;;;806.80;464.40;;;;;;;;;;4965789;28;20130;-81
2022/02/09 15:23:44;;;;;;;804.78;474.35;;;;;;;;;;4966813;28;20045;-80
2022/02/09 15:26:10;;;;;;;805.83;466.98;;;;;;;;;;4966013;28;20118;-81
2022/02/09 15:28:37;;;;;;;805.33;470.65;;;;;;;;;;4998029;28;20043;-81
2022/02/09 15:33:36;;;;;;;805.80;473.20;;;;;;;;;;4970169;28;20518;-82
2022/02/09 15:36:06;;;;;;;804.13;467.63;;;;;;;;;;4949661;28;20058;-83
2022/02/09 15:38:44;;;;;;;801.28;458.10;;;;;;;;;;4950314;28;20038;-82
2022/02/09 15:41:24;;;;;;;804.63;464.45;;;;;;;;;;4981917;28;20376;-81
2022/02/09 15:57:43;;;;;;;802.88;451.30;;;;;;;;;;4972929;28;20418;-83
2022/02/09 16:08:29;;;;;;;802.28;448.75;;;;;;;;;;4954677;28;20040;-83
2022/02/09 16:16:42;;;;;;;805.55;453.90;;;;;;;;;;4960154;28;20035;-81
2022/02/09 16:46:20;;;;;;;804.85;456.65;;;;;;;;;;4959722;28;20075;-83
2022/02/09 16:48:57;;;;;;;808.35;472.67;;;;;;;;;;4978303;28;20099;-82
2022/02/09 16:51:24;;;;;;;811.60;470.15;;;;;;;;;;4966176;28;20081;-83
2022/02/09 16:54:10;;;;;;;810.13;467.55;;;;;;;;;;4972672;28;20035;-82
2022/02/09 16:56:49;;;;;;;807.72;464.63;;;;;;;;;;4973951;28;20069;-82
2022/02/09 17:21:13;;;;;;;814.90;481.05;;;;;;;;;;4952041;28;20037;-82
2022/02/09 17:23:39;;;;;;;815.97;485.08;;;;;;;;;;4954413;28;20256;-82
2022/02/09 17:26:05;;;;;;;810.70;476.05;;;;;;;;;;4951091;28;20084;-82
2022/02/09 17:28:32;;;;;;;817.63;487.65;;;;;;;;;;4954790;28;20121;-82
2022/02/09 17:31:23;;;;;;;818.10;487.58;;;;;;;;;;4946322;28;20134;-82
2022/02/09 17:34:04;;;;;;;817.60;479.08;;;;;;;;;;4963527;28;20040;-80
2022/02/09 17:57:51;;;;;;;817.80;485.13;;;;;;;;;;4975346;28;20046;-81
2022/02/09 18:00:17;;;;;;;816.15;479.63;;;;;;;;;;5007928;28;20048;-82
2022/02/09 18:02:45;;;;;;;816.30;482.30;;;;;;;;;;4987468;28;20039;-82
2022/02/09 18:05:35;;;;;;;814.83;474.55;;;;;;;;;;4971837;28;20092;-81
2022/02/09 18:08:06;;;;;;;809.92;462.08;;;;;;;;;;4954760;28;20049;-81
2022/02/09 18:29:08;;;;;;;812.58;472.13;;;;;;;;;;4982417;28;20028;-85
2022/02/09 18:31:37;;;;;;;810.47;469.20;;;;;;;;;;4983662;28;20167;-84
2022/02/09 18:34:17;;;;;;;812.40;466.80;;;;;;;;;;4978690;28;20030;-84
2022/02/09 18:45:03;;;;;;;816.20;473.70;;;;;;;;;;4967911;28;20032;-84
2022/02/09 18:47:54;;;;;;;815.92;470.55;;;;;;;;;;4940180;28;20026;-86
2022/02/09 19:03:53;;;;;;;813.00;467.15;;;;;;;;;;4949883;29;20047;-84
2022/02/09 19:06:37;;;;;;;810.08;462.50;;;;;;;;;;4947394;28;20050;-84
2022/02/09 19:19:34;;;;;;;817.65;475.10;;;;;;;;;;4943596;28;20444;-84
2022/02/09 19:46:11;;;;;;;812.85;465.83;;;;;;;;;;4956892;28;20487;-83
2022/02/09 19:48:40;;;;;;;812.50;457.58;;;;;;;;;;4947347;28;20027;-84
2022/02/09 19:53:46;;;;;;;816.33;471.85;;;;;;;;;;4966162;28;20031;-84
2022/02/09 19:56:16;;;;;;;;;;;;;;;;;;4962882;28;20485;-85
2022/02/09 19:58:53;;;;;;;810.40;453.38;;;;;;;;;;4966912;28;19910;-84
2022/02/09 20:01:20;;;;;;;814.30;457.85;;;;;;;;;;4970474;28;20402;-84
2022/02/09 20:03:46;;;;;;;811.85;469.90;;;;;;;;;;4977135;28;20116;-85
2022/02/09 20:06:13;;;;;;;817.15;478.10;;;;;;;;;;4938540;28;20145;-84
2022/02/09 20:08:39;;;;;;;818.17;472.98;;;;;;;;;;4970657;28;20122;-85
2022/02/09 20:11:07;;;;;;;814.17;467.95;;;;;;;;;;4976456;28;20023;-84
2022/02/09 20:13:33;;;;;;;812.65;464.73;;;;;;;;;;4979467;28;20153;-85
2022/02/09 20:15:59;;;;;;;811.95;461.33;;;;;;;;;;4943751;28;20112;-85
2022/02/09 20:18:26;;;;;;;818.38;471.20;;;;;;;;;;4945568;28;20028;-84
2022/02/09 20:20:54;;;;;;;816.63;472.15;;;;;;;;;;4945670;28;20126;-84
2022/02/09 20:23:20;;;;;;;811.95;465.48;;;;;;;;;;4955495;28;20066;-84
2022/02/09 20:25:46;;;;;;;812.88;464.35;;;;;;;;;;4972042;28;20594;-84
2022/02/09 20:28:12;;;;;;;812.67;465.90;;;;;;;;;;4943056;28;20468;-85
2022/02/09 20:30:44;;;;;;;815.38;464.35;;;;;;;;;;4964022;28;20025;-83
2022/02/09 20:33:15;;;;;;;814.85;474.92;;;;;;;;;;4954257;28;20339;-85
2022/02/09 20:35:41;;;;;;;814.10;463.30;;;;;;;;;;4940391;28;20043;-84
2022/02/09 20:38:13;;;;;;;816.20;476.85;;;;;;;;;;4970775;28;20043;-85
2022/02/09 20:40:55;;;;;;;813.42;470.52;;;;;;;;;;4975293;28;20487;-85
2022/02/09 20:43:23;;;;;;;810.97;463.55;;;;;;;;;;4962501;28;20037;-84
2022/02/09 20:45:52;;;;;;;819.53;476.08;;;;;;;;;;4950865;28;20044;-84
2022/02/09 20:48:24;;;;;;;812.13;465.58;;;;;;;;;;4950666;28;20027;-86
2022/02/09 20:50:50;;;;;;;814.58;461.73;;;;;;;;;;4938164;28;20038;-85
2022/02/09 20:53:16;;;;;;;814.60;465.83;;;;;;;;;;4959229;28;20043;-85
2022/02/09 20:55:43;;;;;;;816.85;471.38;;;;;;;;;;4968447;28;20043;-84
2022/02/09 20:58:09;;;;;;;812.85;461.65;;;;;;;;;;4944126;28;20042;-85
2022/02/09 21:05:55;;;;;;;813.08;466.58;;;;;;;;;;4948794;28;20055;-86
2022/02/09 21:13:42;;;;;;;813.72;464.20;;;;;;;;;;4980732;28;20052;-85
2022/02/09 21:16:37;;;;;;;810.25;455.02;;;;;;;;;;4967018;28;20043;-85
2022/02/09 21:19:25;;;;;;;812.50;454.13;;;;;;;;;;4963113;28;20069;-84
2022/02/09 21:25:25;;;;;;;808.80;449.15;;;;;;;;;;4951978;28;20046;-83
2022/02/09 21:57:10;;;;;;;810.28;457.45;;;;;;;;;;4964468;28;20366;-84
2022/02/09 22:00:13;;;;;;;810.83;453.85;;;;;;;;;;4943896;28;20084;-85
2022/02/09 22:22:00;;;;;;;810.10;449.58;;;;;;;;;;4958396;28;20045;-84
2022/02/09 22:47:08;;;;;;;809.47;442.88;;;;;;;;;;4952310;28;20090;-84
2022/02/09 22:54:30;;;;;;;810.53;455.98;;;;;;;;;;4951632;28;20031;-85
2022/02/09 22:56:57;;;;;;;804.17;444.33;;;;;;;;;;4973682;28;20068;-86
2022/02/09 22:59:33;;;;;;;811.70;464.67;;;;;;;;;;4954930;28;20546;-85
2022/02/09 23:02:05;;;;;;;808.85;454.27;;;;;;;;;;4945545;28;20121;-83
2022/02/09 23:07:08;;;;;;;807.95;451.88;;;;;;;;;;4957822;28;20517;-85
